»·PEaware :: N6262K KSBP-KTOA

N6262K :: KSBP-KTOA

FLIGHT INFORMATION

Flight Status: Arrived
Operator: Privately registered:
United States
More flights under this callsign
Pilot: Judson K. (15650)
Aircraft: Unknown
(P28U)
More flights by this aircraft type
Origin: KSBP San Luis Co Regl
United States
Destination: KTOA Zamperini
United States
More flights between these airports :: More routes between these airports
Route: +
File this flight plan on PilotEdge
Remarks:
Altitude:
(Current/Filed)
0ft
Speed:
(Current/Filed)
0kts
Departed: 23-Dec-17 10:38 AM
Arrived: 23-Dec-17 11:42 AM
Distance/Time
Traveled:
143nm/1:04
Distance/Time
To Go:
Arrived

Flight Plot

Page will automatically refresh every two minutes.

Flight plan parsing failed; only flown route is shown


Map Options




Map Legend


Flown Route
Filed Route
Departure Airport
Arrival Airport
Navaid (VOR, NDB)
Fix

Horizontal Profiles

Position Reports

Time Latitude Longitude Heading Altitude Ground
Speed
23-Dec-17 10:43 34.955671 -120.500964 146 5501ft 149kts
23-Dec-17 10:44 34.919973 -120.476243 151 5500ft 147kts
23-Dec-17 10:45 34.883808 -120.453938 154 5500ft 147kts
23-Dec-17 10:46 34.854498 -120.421442 125 5500ft 147kts
23-Dec-17 10:47 34.827774 -120.383747 134 5500ft 147kts
23-Dec-17 10:48 34.797895 -120.349797 137 5500ft 147kts
23-Dec-17 10:49 34.766723 -120.318567 140 5501ft 146kts
23-Dec-17 10:50 34.735082 -120.288550 139 5501ft 143kts
23-Dec-17 10:51 34.704132 -120.258133 142 5500ft 143kts
23-Dec-17 10:52 34.673402 -120.228047 141 5500ft 142kts
23-Dec-17 10:53 34.642352 -120.198330 143 5499ft 142kts
23-Dec-17 10:54 34.611135 -120.167260 140 5473ft 145kts
23-Dec-17 10:55 34.579237 -120.137100 143 5473ft 145kts
23-Dec-17 10:56 34.548039 -120.105907 140 5473ft 145kts
23-Dec-17 10:57 34.536148 -120.061006 97 5473ft 145kts
23-Dec-17 10:58 34.532088 -120.012348 94 5473ft 145kts
23-Dec-17 10:59 34.527433 -119.963685 97 5473ft 145kts
23-Dec-17 11:00 34.523634 -119.915150 93 5473ft 144kts
23-Dec-17 11:01 34.519678 -119.866688 93 5473ft 144kts
23-Dec-17 11:02 34.514967 -119.818270 96 5473ft 144kts
23-Dec-17 11:03 34.509846 -119.769903 95 5473ft 144kts
23-Dec-17 11:04 34.503985 -119.721765 97 5473ft 144kts
23-Dec-17 11:05 34.496904 -119.673626 98 5473ft 145kts
23-Dec-17 11:06 34.488761 -119.625880 101 5473ft 145kts
23-Dec-17 11:07 34.478927 -119.578465 103 5473ft 145kts
23-Dec-17 11:08 34.469949 -119.530907 99 5473ft 145kts
23-Dec-17 11:09 34.462064 -119.482926 99 5473ft 145kts
23-Dec-17 11:10 34.454034 -119.435244 98 5473ft 144kts
23-Dec-17 11:11 34.446084 -119.387319 93 5469ft 145kts
23-Dec-17 11:12 34.436325 -119.340981 105 5473ft 145kts
23-Dec-17 11:13 34.426523 -119.293556 102 5483ft 145kts
23-Dec-17 11:14 34.418090 -119.245725 101 5483ft 145kts
23-Dec-17 11:15 34.409968 -119.197830 101 5482ft 145kts
23-Dec-17 11:16 34.400763 -119.150542 101 5537ft 144kts
23-Dec-17 11:17 34.393230 -119.102452 101 5484ft 146kts
23-Dec-17 11:18 34.385505 -119.054236 100 5483ft 145kts
23-Dec-17 11:19 34.377389 -119.006180 99 5483ft 145kts
23-Dec-17 11:20 34.369751 -118.958134 101 5483ft 145kts
23-Dec-17 11:21 34.361991 -118.910088 100 5483ft 145kts
23-Dec-17 11:22 34.354258 -118.862184 99 5483ft 145kts
23-Dec-17 11:23 34.347240 -118.813901 100 5482ft 145kts
23-Dec-17 11:24 34.339806 -118.765946 100 5492ft 145kts
23-Dec-17 11:25 34.332119 -118.718190 101 5492ft 145kts
23-Dec-17 11:26 34.324259 -118.670040 101 5492ft 145kts
23-Dec-17 11:27 34.313358 -118.623018 118 5483ft 146kts
23-Dec-17 11:28 34.278245 -118.599710 155 5492ft 145kts
23-Dec-17 11:29 34.241146 -118.580745 157 5519ft 145kts
23-Dec-17 11:30 34.203316 -118.563617 160 5519ft 145kts
23-Dec-17 11:31 34.165550 -118.544753 157 5493ft 148kts
23-Dec-17 11:32 34.127580 -118.526228 160 5492ft 146kts
23-Dec-17 11:33 34.090095 -118.508036 156 5492ft 145kts
23-Dec-17 11:34 34.052863 -118.489141 159 5492ft 145kts
23-Dec-17 11:35 34.015068 -118.472146 159 5492ft 145kts
23-Dec-17 11:36 33.978243 -118.452410 157 5492ft 146kts
23-Dec-17 11:37 33.940692 -118.432893 157 5493ft 148kts
23-Dec-17 11:38 33.908569 -118.403844 131 5511ft 148kts
23-Dec-17 11:39 33.880437 -118.368854 134 5510ft 148kts
23-Dec-17 11:40 33.850293 -118.336452 140 4785ft 150kts
23-Dec-17 11:41 33.819633 -118.302972 135 3995ft 148kts
23-Dec-17 11:42 33.789827 -118.269060 138 3197ft 148kts
23-Dec-17 11:43 33.759218 -118.237160 146 2581ft 139kts
23-Dec-17 11:44 33.755151 -118.264235 306 1720ft 113kts
23-Dec-17 11:45 33.773963 -118.293608 305 1137ft 98kts
23-Dec-17 11:46 33.787928 -118.314979 305 625ft 78kts
23-Dec-17 11:47 33.800494 -118.334244 305 115ft 65kts
23-Dec-17 11:48 33.805626 -118.342934 289 92ft 12kts
23-Dec-17 11:49 33.805846 -118.343722 288 92ft 0kts
23-Dec-17 11:50 33.805641 -118.345286 219 92ft 11kts
23-Dec-17 11:51 33.802638 -118.342547 219 103ft 10kts

Navigation Log

Ident Type
Flight plan parsing failed, navigation log unavailable